Time;durP1;ratioP1;P1;durP2;ratioP2;P2;SDS_P1;SDS_P2;PMS_P1;PMS_P2;Temp;Humidity;BMP_temperature;BMP_pressure;BME280_temperature;BME280_humidity;BME280_pressure;Samples;Min_cycle;Max_cycle;Signal;HPM_P1;HPM_P2
2023/03/18 00:00:42;;;;;;;13.50;8.50;;;;;;;11.34;91.06;100727.75;5092882;28;20064;-76
2023/03/18 00:03:09;;;;;;;15.02;8.45;;;;;;;11.33;91.70;100731.28;5081885;28;20024;-76
2023/03/18 00:05:35;;;;;;;13.68;8.13;;;;;;;11.32;91.86;100737.41;5093488;28;20575;-76
2023/03/18 00:08:03;;;;;;;15.52;8.68;;;;;;;11.25;92.59;100726.28;5094189;28;20020;-76
2023/03/18 00:10:29;;;;;;;17.52;9.30;;;;;;;11.25;91.99;100739.34;5093524;28;20052;-76
2023/03/18 00:12:54;;;;;;;17.27;8.93;;;;;;;11.20;92.96;100729.00;5091291;28;20455;-76
2023/03/18 00:15:20;;;;;;;17.80;8.98;;;;;;;11.16;92.98;100732.59;5089770;28;20023;-76
2023/03/18 00:17:48;;;;;;;15.98;8.77;;;;;;;11.20;92.70;100744.66;5084137;28;20114;-76
2023/03/18 00:20:17;;;;;;;15.73;8.63;;;;;;;11.18;93.06;100741.25;5094407;28;20074;-76
2023/03/18 00:22:44;;;;;;;18.60;8.85;;;;;;;11.19;92.22;100745.56;5094731;28;20028;-76
2023/03/18 00:25:11;;;;;;;17.52;9.40;;;;;;;11.18;92.48;100745.59;5083438;28;20036;-76
2023/03/18 00:27:38;;;;;;;11.70;8.30;;;;;;;11.16;93.57;100756.09;5090579;28;20387;-76
2023/03/18 00:30:05;;;;;;;23.73;8.65;;;;;;;11.18;93.35;100759.53;5084792;28;20498;-76
2023/03/18 00:32:31;;;;;;;17.02;8.48;;;;;;;11.18;93.10;100761.25;5089698;28;20047;-76
2023/03/18 00:34:57;;;;;;;15.20;8.73;;;;;;;11.15;94.37;100761.34;5092528;28;20020;-76
2023/03/18 00:37:30;;;;;;;17.27;8.60;;;;;;;11.12;94.43;100764.91;5087305;28;20028;-76
2023/03/18 00:40:05;;;;;;;17.53;8.73;;;;;;;11.15;93.24;100761.34;5093789;28;20024;-76
2023/03/18 00:42:38;;;;;;;14.30;8.90;;;;;;;11.15;93.52;100762.22;5080755;28;20649;-77
2023/03/18 00:45:06;;;;;;;11.82;8.05;;;;;;;11.15;94.08;100769.16;5083742;28;20488;-76
2023/03/18 00:47:33;;;;;;;20.00;8.68;;;;;;;11.12;94.39;100764.06;5091185;28;20028;-76
2023/03/18 00:49:58;;;;;;;17.52;8.00;;;;;;;11.15;94.13;100775.25;5084445;28;20054;-76
2023/03/18 00:52:24;;;;;;;16.20;8.43;;;;;;;11.13;93.68;100778.81;5088679;28;20056;-76
2023/03/18 00:54:50;;;;;;;14.75;8.90;;;;;;;11.12;93.97;100770.13;5086491;28;20163;-76
2023/03/18 00:57:16;;;;;;;14.90;8.50;;;;;;;11.18;93.94;100780.41;5087624;28;20106;-76
2023/03/18 00:59:41;;;;;;;13.75;8.50;;;;;;;11.21;94.79;100782.91;5092517;28;20062;-76
2023/03/18 01:02:07;;;;;;;16.30;9.10;;;;;;;11.18;94.98;100777.78;5086504;28;20025;-76
2023/03/18 01:04:32;;;;;;;18.17;9.35;;;;;;;11.21;95.45;100777.69;5088948;28;20059;-76
2023/03/18 01:06:58;;;;;;;21.45;9.05;;;;;;;11.17;95.84;100767.38;5081467;28;20031;-76
2023/03/18 01:09:23;;;;;;;16.83;9.35;;;;;;;11.23;96.41;100780.28;5088136;28;20024;-76
2023/03/18 01:11:49;;;;;;;18.40;9.70;;;;;;;11.23;96.54;100775.91;5092826;28;20478;-76
2023/03/18 01:14:14;;;;;;;17.50;9.55;;;;;;;11.22;97.21;100765.50;5087300;28;20042;-76
2023/03/18 01:16:40;;;;;;;18.17;9.27;;;;;;;11.18;97.84;100774.31;5091936;28;20032;-76
2023/03/18 01:19:05;;;;;;;15.15;9.45;;;;;;;11.07;100.00;100765.91;5093235;28;20058;-76
2023/03/18 01:21:31;;;;;;;18.50;10.18;;;;;;;10.97;100.00;100767.91;5091605;28;20122;-76
2023/03/18 01:23:59;;;;;;;21.60;10.93;;;;;;;10.76;100.00;100743.25;5092928;28;20024;-76
2023/03/18 01:26:25;;;;;;;20.52;10.52;;;;;;;10.80;100.00;100773.56;5081948;28;20024;-76
2023/03/18 01:28:50;;;;;;;22.35;12.60;;;;;;;10.74;100.00;100769.34;5084491;28;20088;-76
2023/03/18 01:31:15;;;;;;;20.02;12.13;;;;;;;10.62;100.00;100763.59;5089596;28;20046;-75
2023/03/18 01:33:41;;;;;;;21.63;12.65;;;;;;;10.56;100.00;100775.03;5082574;28;20075;-76
2023/03/18 01:36:07;;;;;;;21.38;12.50;;;;;;;10.43;100.00;100771.00;5074179;28;20467;-76
2023/03/18 01:38:33;;;;;;;25.65;13.65;;;;;;;10.31;100.00;100773.00;5091722;28;20032;-76
2023/03/18 01:40:59;;;;;;;23.70;13.95;;;;;;;10.20;100.00;100771.50;5093573;28;20027;-76
2023/03/18 01:43:29;;;;;;;23.33;12.90;;;;;;;10.08;100.00;100757.03;5091147;28;20055;-76
2023/03/18 01:45:57;;;;;;;29.63;14.48;;;;;;;10.09;100.00;100766.53;5090263;28;20028;-76
2023/03/18 01:48:25;;;;;;;25.88;14.20;;;;;;;10.07;100.00;100765.72;5089449;28;20099;-76
2023/03/18 01:51:04;;;;;;;25.65;14.30;;;;;;;9.96;100.00;100755.53;5082965;28;20020;-76
2023/03/18 01:53:43;;;;;;;27.88;15.20;;;;;;;9.94;100.00;100751.25;5086455;28;20487;-75
2023/03/18 01:56:09;;;;;;;30.35;15.27;;;;;;;9.98;100.00;100761.59;5079918;28;20031;-76
2023/03/18 01:59:00;;;;;;;26.98;14.88;;;;;;;9.94;100.00;100770.38;5091757;28;20024;-76
2023/03/18 02:01:36;;;;;;;24.13;15.35;;;;;;;9.93;100.00;100773.00;5086991;28;20050;-76
2023/03/18 02:04:04;;;;;;;29.38;16.38;;;;;;;9.90;100.00;100763.50;5091862;28;20020;-75
2023/03/18 02:06:30;;;;;;;28.40;15.45;;;;;;;9.89;100.00;100764.38;5089093;28;20032;-76
2023/03/18 02:08:56;;;;;;;27.02;15.60;;;;;;;9.84;100.00;100748.88;5081295;28;20484;-76
2023/03/18 02:11:22;;;;;;;27.45;15.70;;;;;;;9.84;100.00;100754.09;5092063;28;20027;-76
2023/03/18 02:13:48;;;;;;;25.42;15.90;;;;;;;9.87;100.00;100760.94;5091368;28;20545;-76
2023/03/18 02:16:23;;;;;;;27.48;15.50;;;;;;;9.89;100.00;100772.19;5087102;28;20028;-76
2023/03/18 02:18:55;;;;;;;28.55;16.60;;;;;;;9.83;100.00;100759.31;5088917;28;20050;-76
2023/03/18 02:21:20;;;;;;;26.52;16.27;;;;;;;9.90;100.00;100773.91;5078213;28;20099;-76
2023/03/18 02:23:54;;;;;;;30.85;18.13;;;;;;;9.89;100.00;100769.59;5088791;28;20155;-76
2023/03/18 02:26:48;;;;;;;29.85;17.17;;;;;;;9.86;100.00;100772.25;5091925;28;20097;-77
2023/03/18 02:29:16;;;;;;;28.27;17.63;;;;;;;9.82;100.00;100768.03;5091475;28;20035;-78
2023/03/18 02:31:42;;;;;;;34.75;18.35;;;;;;;9.80;100.00;100773.25;5091288;28;20028;-78
2023/03/18 02:34:09;;;;;;;32.33;18.40;;;;;;;9.83;100.00;100793.16;5091805;28;20421;-78
2023/03/18 02:36:35;;;;;;;36.42;18.95;;;;;;;9.75;100.00;100782.91;5090620;28;20028;-77
2023/03/18 02:39:02;;;;;;;35.72;19.63;;;;;;;9.77;100.00;100786.31;5084511;28;20508;-78
2023/03/18 02:41:31;;;;;;;38.35;19.55;;;;;;;9.77;100.00;100788.94;5092295;28;20031;-78
2023/03/18 02:43:57;;;;;;;28.65;19.40;;;;;;;9.72;100.00;100780.38;5082103;28;20040;-77
2023/03/18 02:46:35;;;;;;;33.97;19.20;;;;;;;9.75;100.00;100782.91;5080474;28;20532;-77
2023/03/18 02:49:02;;;;;;;32.80;19.23;;;;;;;9.75;100.00;100789.88;5084522;28;20032;-77
2023/03/18 02:51:28;;;;;;;29.20;19.63;;;;;;;9.73;100.00;100796.84;5085992;28;20029;-77
2023/03/18 02:53:59;;;;;;;34.65;19.58;;;;;;;9.72;100.00;100800.34;5087153;28;20105;-77
2023/03/18 02:56:25;;;;;;;38.47;20.25;;;;;;;9.69;100.00;100800.41;5086537;28;20043;-77
2023/03/18 02:58:51;;;;;;;36.05;20.05;;;;;;;9.72;100.00;100808.16;5094797;28;20058;-77
2023/03/18 03:01:17;;;;;;;31.55;19.08;;;;;;;9.69;100.00;100803.88;5093014;28;20073;-77
2023/03/18 03:03:42;;;;;;;30.98;20.33;;;;;;;9.64;100.00;100799.63;5094860;28;20038;-76
2023/03/18 03:06:09;;;;;;;33.13;21.23;;;;;;;9.70;100.00;100809.94;5095934;28;20035;-77
2023/03/18 03:08:35;;;;;;;30.50;19.08;;;;;;;9.69;100.00;100819.50;5082363;28;20051;-77
2023/03/18 03:11:01;;;;;;;31.05;20.80;;;;;;;9.65;100.00;100814.38;5093277;28;20101;-77
2023/03/18 03:13:26;;;;;;;35.83;20.00;;;;;;;9.68;100.00;100824.69;5095311;28;20094;-77
2023/03/18 03:15:52;;;;;;;32.17;20.38;;;;;;;9.72;100.00;100818.56;5094700;28;20051;-77
2023/03/18 03:18:18;;;;;;;36.35;20.52;;;;;;;9.67;100.00;100821.25;5090468;28;20107;-77
2023/03/18 03:20:44;;;;;;;33.15;20.63;;;;;;;9.67;100.00;100818.66;5089981;28;20108;-77
2023/03/18 03:23:12;;;;;;;32.92;20.95;;;;;;;9.69;100.00;100824.69;5094851;28;20095;-77
2023/03/18 03:25:38;;;;;;;32.28;20.55;;;;;;;9.66;100.00;100829.09;5094826;28;20383;-77
2023/03/18 03:28:06;;;;;;;34.00;20.65;;;;;;;9.65;100.00;100820.44;5094481;28;20016;-77
2023/03/18 03:30:35;;;;;;;37.75;21.13;;;;;;;9.65;100.00;100822.19;5087943;28;20024;-77
2023/03/18 03:33:01;;;;;;;35.22;21.08;;;;;;;9.62;100.00;100815.28;5089451;28;20379;-77
2023/03/18 03:35:27;;;;;;;35.33;20.80;;;;;;;9.60;100.00;100822.25;5091321;28;20035;-77
2023/03/18 03:37:52;;;;;;;35.45;21.08;;;;;;;9.66;100.00;100822.16;5094320;28;20124;-77
2023/03/18 03:40:19;;;;;;;34.83;20.75;;;;;;;9.63;100.00;100813.53;5094487;28;20573;-77
2023/03/18 03:42:46;;;;;;;38.13;21.60;;;;;;;9.69;100.00;100834.25;5089561;28;20081;-77
2023/03/18 03:45:13;;;;;;;41.05;22.85;;;;;;;9.69;100.00;100826.44;5094647;28;20072;-77
2023/03/18 03:47:41;;;;;;;35.05;21.65;;;;;;;9.63;100.00;100827.41;5091847;28;20054;-78
2023/03/18 03:50:09;;;;;;;42.53;22.35;;;;;;;9.66;100.00;100834.31;5087062;28;20028;-78
2023/03/18 03:52:35;;;;;;;39.33;23.15;;;;;;;9.60;100.00;100828.31;5087450;28;20035;-78
2023/03/18 03:55:00;;;;;;;38.67;23.00;;;;;;;9.62;100.00;100833.50;5088262;28;20036;-78
2023/03/18 03:57:26;;;;;;;35.53;22.85;;;;;;;9.63;100.00;100844.78;5093754;28;20032;-78
2023/03/18 03:59:52;;;;;;;35.55;22.05;;;;;;;9.64;100.00;100841.28;5093819;28;20443;-77
2023/03/18 04:02:18;;;;;;;36.95;22.08;;;;;;;9.66;100.00;100831.72;5094843;28;20028;-78
2023/03/18 04:04:45;;;;;;;38.90;23.35;;;;;;;9.63;100.00;100839.56;5094707;28;20161;-78
2023/03/18 04:07:11;;;;;;;38.13;22.40;;;;;;;9.62;100.00;100843.94;5090560;28;20089;-77
2023/03/18 04:09:37;;;;;;;44.88;23.02;;;;;;;9.64;100.00;100849.94;5086082;28;20031;-78
2023/03/18 04:12:03;;;;;;;33.63;22.48;;;;;;;9.61;100.00;100848.28;5093193;28;20028;-78
2023/03/18 04:14:28;;;;;;;35.00;21.92;;;;;;;9.63;100.00;100847.38;5098414;28;20081;-77
2023/03/18 04:16:56;;;;;;;38.25;23.23;;;;;;;9.63;100.00;100845.63;5097866;28;20032;-77
2023/03/18 04:19:23;;;;;;;40.50;23.27;;;;;;;9.57;100.00;100833.59;5092364;28;20099;-77
2023/03/18 04:21:48;;;;;;;37.47;22.13;;;;;;;9.63;100.00;100844.78;5093765;28;20104;-77
2023/03/18 04:24:14;;;;;;;35.88;23.08;;;;;;;9.53;100.00;100824.13;5093491;28;20074;-77
2023/03/18 04:26:39;;;;;;;38.80;22.73;;;;;;;9.62;100.00;100843.94;5090521;28;20643;-77
2023/03/18 04:29:05;;;;;;;35.55;22.05;;;;;;;9.60;100.00;100854.34;5093607;28;20031;-77
2023/03/18 04:31:31;;;;;;;39.47;23.40;;;;;;;9.60;100.00;100851.75;5093598;28;20036;-77
2023/03/18 04:33:58;;;;;;;37.88;23.90;;;;;;;9.55;100.00;100847.53;5094534;28;20035;-78
2023/03/18 04:36:24;;;;;;;35.55;23.20;;;;;;;9.58;100.00;100855.25;5090812;28;20517;-77
2023/03/18 04:38:50;;;;;;;39.60;22.65;;;;;;;9.56;100.00;100849.25;5093324;28;20036;-77
2023/03/18 04:41:15;;;;;;;36.47;23.33;;;;;;;9.51;100.00;100854.53;5094158;28;20016;-77
2023/03/18 04:43:42;;;;;;;37.15;22.50;;;;;;;9.57;100.00;100861.38;5092749;28;20516;-77
2023/03/18 04:46:07;;;;;;;45.30;23.58;;;;;;;9.58;100.00;100869.16;5094052;28;20099;-77
2023/03/18 04:48:33;;;;;;;41.00;23.88;;;;;;;9.56;100.00;100864.88;5093702;28;20063;-77
2023/03/18 04:50:59;;;;;;;43.65;23.85;;;;;;;9.56;100.00;100870.91;5093697;28;20491;-78
2023/03/18 04:53:25;;;;;;;39.42;22.52;;;;;;;9.56;100.00;100864.88;5084159;28;20102;-77
2023/03/18 04:55:50;;;;;;;44.58;24.65;;;;;;;9.51;100.00;100861.47;5093850;28;20463;-77
2023/03/18 04:58:16;;;;;;;42.97;24.15;;;;;;;9.55;100.00;100873.56;5093438;28;20031;-77
2023/03/18 05:00:41;;;;;;;37.08;23.73;;;;;;;9.55;100.00;100879.63;5092969;28;20032;-77
2023/03/18 05:03:08;;;;;;;39.72;23.80;;;;;;;9.53;100.00;100870.97;5093057;28;20526;-77
2023/03/18 05:05:34;;;;;;;35.83;23.38;;;;;;;9.55;100.00;100883.97;5092940;28;20089;-77
2023/03/18 05:08:11;;;;;;;42.58;24.45;;;;;;;9.46;100.00;100877.19;5093384;28;20451;-77
2023/03/18 05:10:39;;;;;;;40.30;23.90;;;;;;;9.50;100.00;100884.03;5091547;28;20118;-77
2023/03/18 05:13:05;;;;;;;42.13;23.65;;;;;;;9.51;100.00;100893.56;5084320;28;20025;-77
2023/03/18 05:15:30;;;;;;;39.00;23.73;;;;;;;9.52;100.00;100890.09;5086693;28;20036;-77
2023/03/18 05:17:56;;;;;;;39.70;25.05;;;;;;;9.50;100.00;100873.63;5092445;28;20475;-77
2023/03/18 05:20:22;;;;;;;44.83;24.45;;;;;;;9.49;100.00;100884.94;5092586;28;20050;-77
2023/03/18 05:22:47;;;;;;;40.67;23.25;;;;;;;9.48;100.00;100880.63;5086276;28;20061;-77
2023/03/18 05:25:12;;;;;;;42.83;23.63;;;;;;;9.47;100.00;100868.47;5091188;28;20031;-77
2023/03/18 05:27:39;;;;;;;36.03;22.40;;;;;;;9.37;100.00;100866.94;5091690;28;20039;-77
2023/03/18 05:30:05;;;;;;;40.80;22.58;;;;;;;9.36;100.00;100878.25;5088527;28;20025;-77
2023/03/18 05:32:31;;;;;;;41.75;23.73;;;;;;;9.31;100.00;100872.25;5088080;28;20040;-77
2023/03/18 05:34:56;;;;;;;39.90;23.85;;;;;;;9.30;100.00;100874.00;5091736;28;20036;-77
2023/03/18 05:37:22;;;;;;;34.88;22.90;;;;;;;9.27;100.00;100863.66;5081228;28;20444;-77
2023/03/18 05:39:48;;;;;;;38.28;22.73;;;;;;;9.30;100.00;100873.16;5092834;28;20046;-77
2023/03/18 05:42:14;;;;;;;40.60;23.65;;;;;;;9.29;100.00;100876.63;5091872;28;20024;-77
2023/03/18 05:44:41;;;;;;;41.08;22.70;;;;;;;9.26;100.00;100876.69;5085029;28;20043;-77
2023/03/18 05:47:07;;;;;;;40.13;23.17;;;;;;;9.25;100.00;100894.00;5087102;28;20032;-77
2023/03/18 05:49:32;;;;;;;42.42;23.48;;;;;;;9.14;100.00;100881.19;5090917;28;20024;-77
2023/03/18 05:51:58;;;;;;;35.13;22.92;;;;;;;9.15;100.00;100892.47;5081957;28;20032;-77
2023/03/18 05:54:23;;;;;;;40.10;24.15;;;;;;;9.13;100.00;100892.50;5076257;28;20107;-77
2023/03/18 05:56:51;;;;;;;33.28;21.45;;;;;;;9.01;100.00;100894.44;5091621;28;20067;-77
2023/03/18 05:59:17;;;;;;;42.38;22.98;;;;;;;9.04;100.00;100908.25;5087973;28;20024;-77
2023/03/18 06:01:43;;;;;;;38.30;21.75;;;;;;;9.00;100.00;100909.19;5079455;28;20024;-77
2023/03/18 06:04:09;;;;;;;35.60;21.73;;;;;;;8.94;100.00;100896.28;5090111;28;20070;-77
2023/03/18 06:06:42;;;;;;;35.42;21.88;;;;;;;8.98;100.00;100912.69;5092166;28;20103;-77
2023/03/18 06:09:09;;;;;;;38.97;22.83;;;;;;;8.93;100.00;100910.19;5092225;28;20031;-77
2023/03/18 06:11:35;;;;;;;37.22;22.70;;;;;;;8.87;100.00;100918.91;5091916;28;20133;-77
2023/03/18 06:14:02;;;;;;;37.90;21.92;;;;;;;8.82;100.00;100906.88;5088813;28;20074;-77
2023/03/18 06:16:27;;;;;;;33.65;21.15;;;;;;;8.77;100.00;100900.88;5081981;28;20081;-77
2023/03/18 06:18:53;;;;;;;40.53;22.83;;;;;;;8.80;100.00;100913.84;5091065;28;20418;-77
2023/03/18 06:21:18;;;;;;;38.13;23.35;;;;;;;8.79;100.00;100909.50;5091927;28;20421;-77
2023/03/18 06:23:43;;;;;;;36.42;23.13;;;;;;;8.77;100.00;100908.69;5091152;28;20028;-77
2023/03/18 06:26:09;;;;;;;35.15;23.15;;;;;;;8.73;100.00;100894.00;5091761;28;20028;-77
2023/03/18 06:28:35;;;;;;;39.83;22.50;;;;;;;8.75;100.00;100903.50;5089567;28;20028;-77
2023/03/18 06:31:01;;;;;;;37.03;22.67;;;;;;;8.64;100.00;100884.63;5086096;28;20448;-77
2023/03/18 06:33:27;;;;;;;38.03;21.63;;;;;;;8.77;100.00;100906.09;5092222;28;20093;-77
2023/03/18 06:35:53;;;;;;;38.90;22.65;;;;;;;8.81;100.00;100920.75;5090944;28;20032;-77
2023/03/18 06:38:19;;;;;;;35.03;22.25;;;;;;;8.80;100.00;100930.28;5091102;28;20028;-77
2023/03/18 06:40:45;;;;;;;35.63;21.80;;;;;;;8.80;100.00;100929.44;5092037;28;20024;-77
2023/03/18 06:43:10;;;;;;;34.20;22.88;;;;;;;8.79;100.00;100932.91;5088169;28;20024;-77
2023/03/18 06:45:38;;;;;;;43.38;24.88;;;;;;;8.86;100.00;100937.13;5089798;28;20112;-77
2023/03/18 06:48:04;;;;;;;39.85;23.48;;;;;;;8.85;100.00;100935.41;5090952;28;20031;-77
2023/03/18 06:50:30;;;;;;;40.90;24.17;;;;;;;8.87;100.00;100931.91;5077659;28;20028;-77
2023/03/18 06:52:56;;;;;;;38.47;23.98;;;;;;;8.76;100.00;100906.94;5090537;28;20028;-77
2023/03/18 06:55:22;;;;;;;42.20;23.42;;;;;;;8.94;100.00;100939.63;5091021;28;20039;-77
2023/03/18 06:57:48;;;;;;;39.42;23.63;;;;;;;8.91;100.00;100932.72;5083637;28;20032;-77
2023/03/18 07:00:13;;;;;;;35.20;22.90;;;;;;;8.94;100.00;100937.88;5088666;28;20028;-77
2023/03/18 07:02:39;;;;;;;38.03;23.10;;;;;;;9.00;100.00;100939.53;5076692;28;20024;-77
2023/03/18 07:05:06;;;;;;;41.90;24.88;;;;;;;8.98;100.00;100944.75;5086346;28;20024;-77
2023/03/18 07:07:31;;;;;;;37.90;24.08;;;;;;;8.99;100.00;100945.59;5090847;28;20153;-77
2023/03/18 07:09:57;;;;;;;42.05;23.67;;;;;;;9.03;100.00;100944.69;5080039;28;20489;-77
2023/03/18 07:12:23;;;;;;;37.47;24.02;;;;;;;9.07;100.00;100954.16;5086508;28;20469;-77
2023/03/18 07:14:49;;;;;;;39.83;23.95;;;;;;;9.07;100.00;100948.97;5081637;28;20084;-77
2023/03/18 07:17:14;;;;;;;39.25;24.40;;;;;;;9.12;100.00;100961.00;5088629;28;20111;-77
2023/03/18 07:19:40;;;;;;;38.35;22.52;;;;;;;9.17;100.00;100965.28;5079350;28;20077;-77
2023/03/18 07:22:06;;;;;;;39.88;24.20;;;;;;;9.14;100.00;100960.97;5090082;28;20048;-77
2023/03/18 07:24:31;;;;;;;37.72;23.20;;;;;;;9.20;100.00;100957.44;5088860;28;20071;-77
2023/03/18 07:26:56;;;;;;;40.97;23.02;;;;;;;9.21;100.00;100962.59;5090591;28;20043;-77
2023/03/18 07:29:22;;;;;;;37.83;23.92;;;;;;;9.28;100.00;100974.63;5074501;28;20025;-77
2023/03/18 07:31:47;;;;;;;37.50;24.23;;;;;;;9.29;100.00;100965.09;5081194;28;20055;-77
2023/03/18 07:34:13;;;;;;;39.40;23.42;;;;;;;9.33;100.00;100971.97;5091690;28;20039;-77
2023/03/18 07:36:40;;;;;;;34.28;23.25;;;;;;;9.32;100.00;100975.44;5092268;28;20020;-76
2023/03/18 07:39:07;;;;;;;35.42;23.88;;;;;;;9.41;100.00;100979.63;5089257;28;20058;-77
2023/03/18 07:41:32;;;;;;;39.25;23.00;;;;;;;9.41;100.00;100984.84;5088016;28;20033;-77
2023/03/18 07:43:58;;;;;;;37.28;24.08;;;;;;;9.48;100.00;100987.34;5091271;28;20043;-77
2023/03/18 07:46:24;;;;;;;34.15;22.85;;;;;;;9.52;100.00;100993.34;5091453;28;20032;-77
2023/03/18 07:48:50;;;;;;;33.00;22.63;;;;;;;9.53;100.00;100992.44;5100946;28;20023;-77
2023/03/18 07:51:16;;;;;;;36.17;22.70;;;;;;;9.58;100.00;100996.69;5083355;28;20380;-77
2023/03/18 07:53:42;;;;;;;33.17;22.00;;;;;;;9.58;100.00;100993.22;5093208;28;20093;-76
2023/03/18 07:56:11;;;;;;;36.92;22.55;;;;;;;9.69;100.00;100991.28;5088315;28;20028;-76
2023/03/18 07:58:37;;;;;;;31.52;21.17;;;;;;;9.65;100.00;100976.63;5081023;28;20436;-76
2023/03/18 08:01:03;;;;;;;34.85;20.98;;;;;;;9.74;100.00;100973.84;5094641;28;20020;-77
2023/03/18 08:03:28;;;;;;;29.42;18.40;;;;;;;9.88;100.00;100990.97;5094682;28;20039;-78
2023/03/18 08:05:54;;;;;;;27.92;18.52;;;;;;;9.89;100.00;100982.28;5093916;28;20028;-77
2023/03/18 08:08:20;;;;;;;26.88;18.35;;;;;;;9.95;100.00;100976.97;5083935;28;20433;-77
2023/03/18 08:10:46;;;;;;;24.60;17.23;;;;;;;10.00;100.00;100975.09;5088568;28;20095;-78
2023/03/18 08:13:11;;;;;;;24.00;17.30;;;;;;;10.08;100.00;100971.47;5087945;28;20032;-77
2023/03/18 08:15:37;;;;;;;22.25;16.05;;;;;;;10.14;100.00;100972.25;5094385;28;20020;-77
2023/03/18 08:18:03;;;;;;;29.00;15.60;;;;;;;10.17;100.00;100965.25;5092954;28;20028;-77
2023/03/18 08:20:28;;;;;;;24.05;15.77;;;;;;;10.22;100.00;100968.59;5094689;28;20027;-77
2023/03/18 08:22:57;;;;;;;23.25;14.80;;;;;;;10.36;100.00;100981.38;5094851;28;20024;-77
2023/03/18 08:25:22;;;;;;;19.50;13.93;;;;;;;10.41;100.00;100978.69;5087416;28;20039;-78
2023/03/18 08:27:49;;;;;;;21.02;14.13;;;;;;;10.45;100.00;100977.72;5088582;28;20106;-79
2023/03/18 08:30:15;;;;;;;21.30;14.27;;;;;;;10.63;100.00;100984.31;5084232;28;20033;-79
2023/03/18 08:32:41;;;;;;;19.08;13.48;;;;;;;10.76;100.00;100980.56;5090977;28;20016;-76
2023/03/18 08:35:08;;;;;;;18.73;12.13;;;;;;;10.85;100.00;100975.13;5094942;28;20035;-79
2023/03/18 08:37:34;;;;;;;17.60;12.77;;;;;;;11.05;100.00;100990.31;5080579;28;20439;-77
2023/03/18 08:40:00;;;;;;;18.95;12.07;;;;;;;11.16;100.00;100983.09;5088086;28;20153;-78
2023/03/18 08:42:26;;;;;;;19.02;13.23;;;;;;;11.28;100.00;100983.69;5087448;28;20020;-78
2023/03/18 08:44:52;;;;;;;16.63;13.05;;;;;;;11.43;100.00;100993.78;5085225;28;20047;-78
2023/03/18 08:47:17;;;;;;;16.38;12.40;;;;;;;11.51;100.00;100989.22;5086813;28;20078;-79
2023/03/18 08:49:45;;;;;;;17.05;12.60;;;;;;;11.58;100.00;100990.78;5083237;28;20024;-79
2023/03/18 08:52:10;;;;;;;18.40;12.27;;;;;;;11.67;100.00;101000.13;5090864;28;20078;-79
2023/03/18 08:54:36;;;;;;;16.70;11.43;;;;;;;11.66;100.00;100996.66;5073355;28;20063;-79
2023/03/18 08:57:04;;;;;;;14.98;11.27;;;;;;;11.73;100.00;100984.31;5077052;28;20467;-79
2023/03/18 08:59:29;;;;;;;17.48;11.52;;;;;;;11.84;100.00;100995.38;5093299;28;20027;-79
2023/03/18 09:01:55;;;;;;;16.98;11.35;;;;;;;11.91;100.00;100989.09;5079942;28;20036;-79
2023/03/18 09:04:21;;;;;;;16.77;11.35;;;;;;;12.10;100.00;100997.28;5085489;28;20016;-79
2023/03/18 09:06:47;;;;;;;14.68;10.88;;;;;;;12.28;100.00;100992.44;5080328;28;20028;-79
2023/03/18 09:09:13;;;;;;;16.83;10.77;;;;;;;12.29;100.00;100981.06;5079852;28;20348;-79
2023/03/18 09:11:38;;;;;;;17.45;10.80;;;;;;;12.53;100.00;101003.06;5090242;28;20035;-80
2023/03/18 09:14:04;;;;;;;12.77;9.60;;;;;;;12.63;100.00;100999.28;5090580;28;20016;-79
2023/03/18 09:16:29;;;;;;;12.93;9.13;;;;;;;12.80;100.00;101002.25;5089655;28;20032;-88
2023/03/18 09:26:44;;;;;;;13.85;8.50;;;;;;;13.01;100.00;101010.34;6101555;22;20005;-79
2023/03/18 09:29:10;;;;;;;13.90;8.48;;;;;;;12.97;100.00;101003.50;5106228;28;20141;-79
2023/03/18 09:31:36;;;;;;;12.85;8.38;;;;;;;13.04;100.00;100999.78;5112098;28;20122;-79
2023/03/18 09:34:02;;;;;;;12.77;8.48;;;;;;;13.21;100.00;101015.84;5107149;27;20024;-80
2023/03/18 09:36:27;;;;;;;11.90;7.88;;;;;;;13.41;100.00;101009.13;5108465;28;20478;-80
2023/03/18 09:38:53;;;;;;;10.80;7.45;;;;;;;13.57;100.00;101011.19;5108858;28;20028;-79
2023/03/18 09:41:24;;;;;;;12.25;8.00;;;;;;;13.72;100.00;100999.31;5103418;28;20052;-79
2023/03/18 09:43:52;;;;;;;10.75;7.63;;;;;;;13.84;100.00;100997.22;5110919;28;20020;-80
2023/03/18 09:46:33;;;;;;;11.25;7.70;;;;;;;13.96;100.00;100999.38;5113897;28;20062;-80
2023/03/18 09:49:09;;;;;;;9.23;7.05;;;;;;;14.11;100.00;101004.09;5101248;28;20076;-79
2023/03/18 09:51:49;;;;;;;9.50;6.88;;;;;;;14.19;100.00;100998.56;5113022;28;20027;-79
2023/03/18 09:54:27;;;;;;;9.05;6.68;;;;;;;14.23;100.00;100990.56;5101706;28;20088;-80
2023/03/18 09:56:53;;;;;;;10.70;6.28;;;;;;;14.30;100.00;100970.22;5113141;28;20026;-79
2023/03/18 09:59:22;;;;;;;9.25;6.20;;;;;;;14.58;96.46;100988.41;5113370;28;20015;-80
2023/03/18 10:01:53;;;;;;;8.82;6.13;;;;;;;14.61;94.45;100966.47;5112169;28;20474;-80
2023/03/18 10:04:36;;;;;;;8.95;5.53;;;;;;;14.75;95.90;100993.03;5100850;28;20018;-80
2023/03/18 10:07:06;;;;;;;9.90;5.70;;;;;;;14.66;93.67;100994.25;5113460;28;20134;-80
2023/03/18 10:09:40;;;;;;;7.53;4.40;;;;;;;14.53;91.85;101008.72;5112955;28;20122;-80
2023/03/18 10:12:24;;;;;;;7.03;3.85;;;;;;;14.57;91.59;100999.81;5112029;28;20467;-80
2023/03/18 10:14:55;;;;;;;7.72;4.70;;;;;;;14.82;90.80;101005.00;5102684;28;20040;-80
2023/03/18 10:17:24;;;;;;;8.93;5.00;;;;;;;15.01;87.25;101001.66;5099722;28;20035;-79
2023/03/18 10:20:04;;;;;;;8.10;4.32;;;;;;;15.17;88.85;100997.50;5102225;28;20054;-79
2023/03/18 10:22:51;;;;;;;8.25;4.30;;;;;;;15.54;89.59;100998.66;5113235;28;20023;-80
2023/03/18 10:25:25;;;;;;;7.63;3.90;;;;;;;15.73;84.26;101004.00;5113533;28;20024;-80
2023/03/18 10:28:04;;;;;;;6.05;3.63;;;;;;;15.64;81.60;101011.34;5098279;28;20510;-80
2023/03/18 10:30:47;;;;;;;7.45;4.18;;;;;;;15.64;81.98;101008.72;5112989;28;20027;-80
2023/03/18 10:33:40;;;;;;;8.80;4.15;;;;;;;15.73;82.49;100993.50;5113588;28;20019;-80
2023/03/18 10:36:18;;;;;;;6.70;3.38;;;;;;;15.94;82.66;101008.34;5098783;28;20043;-80
2023/03/18 10:38:48;;;;;;;7.25;3.42;;;;;;;16.12;78.38;100998.78;5112497;28;20028;-79
2023/03/18 10:41:16;;;;;;;7.05;3.60;;;;;;;16.14;79.52;100995.19;5110405;28;20019;-80
2023/03/18 10:43:44;;;;;;;10.75;3.65;;;;;;;16.18;77.05;100990.63;5105957;28;20090;-80
2023/03/18 10:46:14;;;;;;;7.40;3.75;;;;;;;16.28;74.96;100991.94;5106303;28;20016;-80
2023/03/18 10:49:06;;;;;;;7.53;4.13;;;;;;;16.20;75.17;100987.97;5112735;28;20022;-80
2023/03/18 10:51:51;;;;;;;7.25;3.20;;;;;;;16.12;76.50;100989.16;5112393;28;20028;-80
2023/03/18 10:54:31;;;;;;;6.70;3.30;;;;;;;16.02;74.34;100985.22;5101108;28;20028;-80
2023/03/18 10:56:57;;;;;;;5.43;3.47;;;;;;;15.97;73.96;100989.81;5110293;28;20023;-80
2023/03/18 10:59:24;;;;;;;5.05;3.00;;;;;;;15.93;73.89;100985.63;5100751;28;20030;-80
2023/03/18 11:01:59;;;;;;;7.88;3.22;;;;;;;15.97;75.03;100989.81;5111886;28;20497;-79
2023/03/18 11:04:35;;;;;;;4.22;3.00;;;;;;;16.03;74.10;100994.81;5100148;28;20024;-80
2023/03/18 11:07:05;;;;;;;4.95;3.20;;;;;;;16.14;73.80;100999.59;5098082;28;20024;-79
2023/03/18 11:09:34;;;;;;;5.63;3.40;;;;;;;16.09;72.22;100986.66;5112129;28;20509;-80
2023/03/18 11:12:15;;;;;;;5.15;3.20;;;;;;;16.10;74.92;100998.03;5112393;28;20101;-80
2023/03/18 11:14:47;;;;;;;7.32;2.75;;;;;;;16.08;74.47;100992.81;5103607;28;20089;-80
2023/03/18 11:17:32;;;;;;;5.65;2.80;;;;;;;15.91;73.98;100983.03;5097954;28;20028;-80
2023/03/18 11:20:06;;;;;;;5.93;2.80;;;;;;;15.84;74.68;101000.00;5116433;28;20363;-80
2023/03/18 11:22:32;;;;;;;7.35;3.75;;;;;;;15.67;73.68;100999.88;5116651;28;20019;-81